sensor_id;sensor_type;location;lat;lon;timestamp;P1;durP1;ratioP1;P2;durP2;ratioP2
79712;SDS011;69206;51.420;5.400;2023-05-07T00:00:09;11.13;;;8.27;;
79712;SDS011;69206;51.420;5.400;2023-05-07T00:02:36;11.80;;;9.43;;
79712;SDS011;69206;51.420;5.400;2023-05-07T00:05:02;17.15;;;10.55;;
79712;SDS011;69206;51.420;5.400;2023-05-07T00:07:28;12.63;;;10.60;;
79712;SDS011;69206;51.420;5.400;2023-05-07T00:09:54;15.73;;;10.90;;
79712;SDS011;69206;51.420;5.400;2023-05-07T00:12:19;18.55;;;12.07;;
79712;SDS011;69206;51.420;5.400;2023-05-07T00:14:45;16.55;;;10.93;;
79712;SDS011;69206;51.420;5.400;2023-05-07T00:17:10;17.70;;;11.82;;
79712;SDS011;69206;51.420;5.400;2023-05-07T00:19:36;15.15;;;11.15;;
79712;SDS011;69206;51.420;5.400;2023-05-07T00:22:01;15.50;;;11.00;;
79712;SDS011;69206;51.420;5.400;2023-05-07T00:24:26;15.60;;;11.73;;
79712;SDS011;69206;51.420;5.400;2023-05-07T00:26:52;15.27;;;11.90;;
79712;SDS011;69206;51.420;5.400;2023-05-07T00:29:17;16.55;;;11.88;;
79712;SDS011;69206;51.420;5.400;2023-05-07T00:31:43;17.25;;;12.50;;
79712;SDS011;69206;51.420;5.400;2023-05-07T00:34:08;16.42;;;11.93;;
79712;SDS011;69206;51.420;5.400;2023-05-07T00:36:34;16.55;;;12.27;;
79712;SDS011;69206;51.420;5.400;2023-05-07T00:38:59;19.23;;;12.55;;
79712;SDS011;69206;51.420;5.400;2023-05-07T00:41:27;16.02;;;12.55;;
79712;SDS011;69206;51.420;5.400;2023-05-07T00:43:52;17.55;;;13.95;;
79712;SDS011;69206;51.420;5.400;2023-05-07T00:46:20;17.35;;;13.10;;
79712;SDS011;69206;51.420;5.400;2023-05-07T00:48:46;18.02;;;13.02;;
79712;SDS011;69206;51.420;5.400;2023-05-07T00:51:12;18.65;;;13.32;;
79712;SDS011;69206;51.420;5.400;2023-05-07T00:53:37;19.08;;;14.38;;
79712;SDS011;69206;51.420;5.400;2023-05-07T00:56:04;19.00;;;13.77;;
79712;SDS011;69206;51.420;5.400;2023-05-07T00:58:31;17.13;;;13.23;;
79712;SDS011;69206;51.420;5.400;2023-05-07T01:00:57;18.20;;;13.10;;
79712;SDS011;69206;51.420;5.400;2023-05-07T01:03:23;19.95;;;13.63;;
79712;SDS011;69206;51.420;5.400;2023-05-07T01:05:48;19.42;;;14.30;;
79712;SDS011;69206;51.420;5.400;2023-05-07T01:08:15;17.92;;;13.95;;
79712;SDS011;69206;51.420;5.400;2023-05-07T01:10:41;19.55;;;14.13;;
79712;SDS011;69206;51.420;5.400;2023-05-07T01:13:08;19.60;;;14.30;;
79712;SDS011;69206;51.420;5.400;2023-05-07T01:15:35;17.75;;;14.48;;
79712;SDS011;69206;51.420;5.400;2023-05-07T01:18:01;20.10;;;15.40;;
79712;SDS011;69206;51.420;5.400;2023-05-07T01:20:27;21.17;;;15.63;;
79712;SDS011;69206;51.420;5.400;2023-05-07T01:22:53;24.25;;;15.57;;
79712;SDS011;69206;51.420;5.400;2023-05-07T01:25:20;22.48;;;15.80;;
79712;SDS011;69206;51.420;5.400;2023-05-07T01:27:45;23.67;;;16.33;;
79712;SDS011;69206;51.420;5.400;2023-05-07T01:30:11;26.13;;;16.95;;
79712;SDS011;69206;51.420;5.400;2023-05-07T01:32:42;21.83;;;16.13;;
79712;SDS011;69206;51.420;5.400;2023-05-07T01:35:11;28.65;;;17.88;;
79712;SDS011;69206;51.420;5.400;2023-05-07T01:37:39;25.92;;;18.55;;
79712;SDS011;69206;51.420;5.400;2023-05-07T01:40:05;26.70;;;18.77;;
79712;SDS011;69206;51.420;5.400;2023-05-07T01:42:32;26.92;;;19.10;;
79712;SDS011;69206;51.420;5.400;2023-05-07T01:44:58;28.52;;;19.27;;
79712;SDS011;69206;51.420;5.400;2023-05-07T01:47:23;25.95;;;19.70;;
79712;SDS011;69206;51.420;5.400;2023-05-07T01:49:50;30.20;;;19.85;;
79712;SDS011;69206;51.420;5.400;2023-05-07T01:52:16;29.98;;;19.05;;
79712;SDS011;69206;51.420;5.400;2023-05-07T01:54:42;25.02;;;19.70;;
79712;SDS011;69206;51.420;5.400;2023-05-07T01:57:08;32.22;;;21.17;;
79712;SDS011;69206;51.420;5.400;2023-05-07T01:59:34;30.60;;;21.38;;
79712;SDS011;69206;51.420;5.400;2023-05-07T02:01:59;34.38;;;21.25;;
79712;SDS011;69206;51.420;5.400;2023-05-07T02:04:25;33.20;;;21.83;;
79712;SDS011;69206;51.420;5.400;2023-05-07T02:06:51;31.33;;;22.73;;
79712;SDS011;69206;51.420;5.400;2023-05-07T02:09:17;30.38;;;22.45;;
79712;SDS011;69206;51.420;5.400;2023-05-07T02:11:43;32.08;;;22.13;;
79712;SDS011;69206;51.420;5.400;2023-05-07T02:14:09;34.78;;;21.70;;
79712;SDS011;69206;51.420;5.400;2023-05-07T02:16:35;33.78;;;23.55;;
79712;SDS011;69206;51.420;5.400;2023-05-07T02:19:00;36.28;;;24.90;;
79712;SDS011;69206;51.420;5.400;2023-05-07T02:21:25;34.53;;;23.38;;
79712;SDS011;69206;51.420;5.400;2023-05-07T02:23:51;34.30;;;24.00;;
79712;SDS011;69206;51.420;5.400;2023-05-07T02:26:17;36.40;;;25.67;;
79712;SDS011;69206;51.420;5.400;2023-05-07T02:28:43;43.20;;;25.20;;
79712;SDS011;69206;51.420;5.400;2023-05-07T02:31:08;38.25;;;25.00;;
79712;SDS011;69206;51.420;5.400;2023-05-07T02:33:34;37.88;;;25.75;;
79712;SDS011;69206;51.420;5.400;2023-05-07T02:36:05;36.88;;;24.85;;
79712;SDS011;69206;51.420;5.400;2023-05-07T02:38:34;38.13;;;25.73;;
79712;SDS011;69206;51.420;5.400;2023-05-07T02:40:59;40.97;;;27.10;;
79712;SDS011;69206;51.420;5.400;2023-05-07T02:43:25;37.20;;;26.35;;
79712;SDS011;69206;51.420;5.400;2023-05-07T02:45:59;42.63;;;26.38;;
79712;SDS011;69206;51.420;5.400;2023-05-07T02:48:26;34.35;;;25.33;;
79712;SDS011;69206;51.420;5.400;2023-05-07T02:50:52;44.75;;;26.92;;
79712;SDS011;69206;51.420;5.400;2023-05-07T02:53:17;38.25;;;27.08;;
79712;SDS011;69206;51.420;5.400;2023-05-07T02:55:42;42.88;;;28.75;;
79712;SDS011;69206;51.420;5.400;2023-05-07T02:58:08;39.85;;;28.08;;
79712;SDS011;69206;51.420;5.400;2023-05-07T03:00:34;39.08;;;27.70;;
79712;SDS011;69206;51.420;5.400;2023-05-07T03:02:59;44.55;;;27.42;;
79712;SDS011;69206;51.420;5.400;2023-05-07T03:05:25;41.05;;;26.92;;
79712;SDS011;69206;51.420;5.400;2023-05-07T03:07:50;45.92;;;28.88;;
79712;SDS011;69206;51.420;5.400;2023-05-07T03:10:16;42.35;;;28.58;;
79712;SDS011;69206;51.420;5.400;2023-05-07T03:12:41;46.08;;;28.55;;
79712;SDS011;69206;51.420;5.400;2023-05-07T03:15:07;41.33;;;28.63;;
79712;SDS011;69206;51.420;5.400;2023-05-07T03:17:33;41.83;;;28.23;;
79712;SDS011;69206;51.420;5.400;2023-05-07T03:19:58;49.80;;;31.20;;
79712;SDS011;69206;51.420;5.400;2023-05-07T03:22:24;43.50;;;30.33;;
79712;SDS011;69206;51.420;5.400;2023-05-07T03:24:49;44.55;;;30.10;;
79712;SDS011;69206;51.420;5.400;2023-05-07T03:27:14;42.45;;;29.75;;
79712;SDS011;69206;51.420;5.400;2023-05-07T03:29:40;46.88;;;31.80;;
79712;SDS011;69206;51.420;5.400;2023-05-07T03:32:05;50.38;;;31.92;;
79712;SDS011;69206;51.420;5.400;2023-05-07T03:34:31;50.33;;;32.15;;
79712;SDS011;69206;51.420;5.400;2023-05-07T03:36:56;47.42;;;31.85;;
79712;SDS011;69206;51.420;5.400;2023-05-07T03:39:21;49.13;;;32.22;;
79712;SDS011;69206;51.420;5.400;2023-05-07T03:41:47;50.95;;;33.78;;
79712;SDS011;69206;51.420;5.400;2023-05-07T03:44:12;54.03;;;33.17;;
79712;SDS011;69206;51.420;5.400;2023-05-07T03:46:38;50.55;;;33.40;;
79712;SDS011;69206;51.420;5.400;2023-05-07T03:49:03;56.28;;;35.28;;
79712;SDS011;69206;51.420;5.400;2023-05-07T03:51:28;49.90;;;32.67;;
79712;SDS011;69206;51.420;5.400;2023-05-07T03:53:55;53.20;;;32.95;;
79712;SDS011;69206;51.420;5.400;2023-05-07T03:56:22;53.05;;;33.33;;
79712;SDS011;69206;51.420;5.400;2023-05-07T03:58:48;49.95;;;33.85;;
79712;SDS011;69206;51.420;5.400;2023-05-07T04:01:13;50.72;;;33.45;;
79712;SDS011;69206;51.420;5.400;2023-05-07T04:03:38;56.63;;;32.85;;
79712;SDS011;69206;51.420;5.400;2023-05-07T04:06:04;49.47;;;33.58;;
79712;SDS011;69206;51.420;5.400;2023-05-07T04:08:29;49.30;;;33.42;;
79712;SDS011;69206;51.420;5.400;2023-05-07T04:10:56;49.92;;;32.88;;
79712;SDS011;69206;51.420;5.400;2023-05-07T04:13:21;52.17;;;34.30;;
79712;SDS011;69206;51.420;5.400;2023-05-07T04:15:47;52.33;;;33.55;;
79712;SDS011;69206;51.420;5.400;2023-05-07T04:18:14;52.70;;;34.15;;
79712;SDS011;69206;51.420;5.400;2023-05-07T04:20:39;55.40;;;34.50;;
79712;SDS011;69206;51.420;5.400;2023-05-07T04:23:05;53.05;;;34.20;;
79712;SDS011;69206;51.420;5.400;2023-05-07T04:25:30;55.22;;;34.50;;
79712;SDS011;69206;51.420;5.400;2023-05-07T04:27:56;47.40;;;33.20;;
79712;SDS011;69206;51.420;5.400;2023-05-07T04:30:21;49.22;;;33.97;;
79712;SDS011;69206;51.420;5.400;2023-05-07T04:32:47;54.90;;;34.58;;
79712;SDS011;69206;51.420;5.400;2023-05-07T04:35:13;54.72;;;35.35;;
79712;SDS011;69206;51.420;5.400;2023-05-07T04:37:39;57.45;;;34.17;;
79712;SDS011;69206;51.420;5.400;2023-05-07T04:40:05;57.85;;;34.28;;
79712;SDS011;69206;51.420;5.400;2023-05-07T04:42:31;51.65;;;34.20;;
79712;SDS011;69206;51.420;5.400;2023-05-07T04:44:57;52.80;;;35.22;;
79712;SDS011;69206;51.420;5.400;2023-05-07T04:47:22;48.90;;;33.45;;
79712;SDS011;69206;51.420;5.400;2023-05-07T04:49:48;54.72;;;34.28;;
79712;SDS011;69206;51.420;5.400;2023-05-07T04:52:13;53.42;;;36.00;;
79712;SDS011;69206;51.420;5.400;2023-05-07T04:54:38;52.50;;;35.03;;
79712;SDS011;69206;51.420;5.400;2023-05-07T04:57:04;51.55;;;34.70;;
79712;SDS011;69206;51.420;5.400;2023-05-07T04:59:29;54.15;;;34.17;;
79712;SDS011;69206;51.420;5.400;2023-05-07T05:01:55;59.05;;;35.58;;
79712;SDS011;69206;51.420;5.400;2023-05-07T05:04:20;52.47;;;35.40;;
79712;SDS011;69206;51.420;5.400;2023-05-07T05:06:46;53.67;;;34.35;;
79712;SDS011;69206;51.420;5.400;2023-05-07T05:09:11;51.75;;;35.58;;
79712;SDS011;69206;51.420;5.400;2023-05-07T05:11:36;49.10;;;34.30;;
79712;SDS011;69206;51.420;5.400;2023-05-07T05:14:02;48.72;;;33.95;;
79712;SDS011;69206;51.420;5.400;2023-05-07T05:16:27;47.08;;;32.72;;
79712;SDS011;69206;51.420;5.400;2023-05-07T05:18:53;50.83;;;34.55;;
79712;SDS011;69206;51.420;5.400;2023-05-07T05:21:19;52.30;;;33.95;;
79712;SDS011;69206;51.420;5.400;2023-05-07T05:23:45;50.13;;;33.88;;
79712;SDS011;69206;51.420;5.400;2023-05-07T05:26:10;50.03;;;34.10;;
79712;SDS011;69206;51.420;5.400;2023-05-07T05:28:36;51.30;;;34.17;;
79712;SDS011;69206;51.420;5.400;2023-05-07T05:31:01;53.92;;;33.83;;
79712;SDS011;69206;51.420;5.400;2023-05-07T05:33:27;53.72;;;34.30;;
79712;SDS011;69206;51.420;5.400;2023-05-07T05:35:53;52.75;;;34.33;;
79712;SDS011;69206;51.420;5.400;2023-05-07T05:38:19;55.45;;;34.60;;
79712;SDS011;69206;51.420;5.400;2023-05-07T05:40:45;47.50;;;32.90;;
79712;SDS011;69206;51.420;5.400;2023-05-07T05:43:13;46.47;;;32.05;;
79712;SDS011;69206;51.420;5.400;2023-05-07T05:45:38;49.50;;;33.92;;
79712;SDS011;69206;51.420;5.400;2023-05-07T05:48:04;47.50;;;31.00;;
79712;SDS011;69206;51.420;5.400;2023-05-07T05:50:30;49.17;;;31.98;;
79712;SDS011;69206;51.420;5.400;2023-05-07T05:52:55;47.58;;;31.15;;
79712;SDS011;69206;51.420;5.400;2023-05-07T05:55:21;44.53;;;30.92;;
79712;SDS011;69206;51.420;5.400;2023-05-07T05:57:47;45.33;;;30.58;;
79712;SDS011;69206;51.420;5.400;2023-05-07T06:00:12;48.90;;;32.03;;
79712;SDS011;69206;51.420;5.400;2023-05-07T06:02:38;40.88;;;30.05;;
79712;SDS011;69206;51.420;5.400;2023-05-07T06:05:04;44.22;;;27.88;;
79712;SDS011;69206;51.420;5.400;2023-05-07T06:07:29;46.10;;;28.85;;
79712;SDS011;69206;51.420;5.400;2023-05-07T06:09:55;45.47;;;29.23;;
79712;SDS011;69206;51.420;5.400;2023-05-07T06:12:20;43.38;;;27.60;;
79712;SDS011;69206;51.420;5.400;2023-05-07T06:14:46;38.08;;;27.95;;
79712;SDS011;69206;51.420;5.400;2023-05-07T06:17:11;41.65;;;27.08;;
79712;SDS011;69206;51.420;5.400;2023-05-07T06:19:37;36.65;;;27.38;;
79712;SDS011;69206;51.420;5.400;2023-05-07T06:22:02;34.85;;;25.25;;
79712;SDS011;69206;51.420;5.400;2023-05-07T06:24:28;35.45;;;24.88;;
79712;SDS011;69206;51.420;5.400;2023-05-07T06:26:53;35.40;;;24.25;;
79712;SDS011;69206;51.420;5.400;2023-05-07T06:29:19;35.22;;;24.48;;
79712;SDS011;69206;51.420;5.400;2023-05-07T06:31:44;34.00;;;23.13;;
79712;SDS011;69206;51.420;5.400;2023-05-07T06:34:09;33.42;;;24.10;;
79712;SDS011;69206;51.420;5.400;2023-05-07T06:36:39;33.55;;;23.67;;
79712;SDS011;69206;51.420;5.400;2023-05-07T06:39:05;37.83;;;23.30;;
79712;SDS011;69206;51.420;5.400;2023-05-07T06:41:30;31.02;;;23.17;;
79712;SDS011;69206;51.420;5.400;2023-05-07T06:43:56;32.30;;;22.42;;
79712;SDS011;69206;51.420;5.400;2023-05-07T06:46:21;33.25;;;21.75;;
79712;SDS011;69206;51.420;5.400;2023-05-07T06:48:47;30.50;;;21.88;;
79712;SDS011;69206;51.420;5.400;2023-05-07T06:51:12;27.25;;;21.25;;
79712;SDS011;69206;51.420;5.400;2023-05-07T06:53:38;33.35;;;21.35;;
79712;SDS011;69206;51.420;5.400;2023-05-07T06:56:03;33.15;;;22.23;;
79712;SDS011;69206;51.420;5.400;2023-05-07T06:58:29;29.73;;;21.58;;
79712;SDS011;69206;51.420;5.400;2023-05-07T07:00:55;28.02;;;21.05;;
79712;SDS011;69206;51.420;5.400;2023-05-07T07:03:20;30.77;;;21.58;;
79712;SDS011;69206;51.420;5.400;2023-05-07T07:05:45;31.67;;;21.45;;
79712;SDS011;69206;51.420;5.400;2023-05-07T07:08:11;29.85;;;20.90;;
79712;SDS011;69206;51.420;5.400;2023-05-07T07:10:36;35.13;;;20.90;;
79712;SDS011;69206;51.420;5.400;2023-05-07T07:13:02;26.67;;;20.33;;
79712;SDS011;69206;51.420;5.400;2023-05-07T07:15:27;28.08;;;21.50;;
79712;SDS011;69206;51.420;5.400;2023-05-07T07:17:53;27.02;;;19.92;;
79712;SDS011;69206;51.420;5.400;2023-05-07T07:20:18;30.80;;;19.85;;
79712;SDS011;69206;51.420;5.400;2023-05-07T07:22:44;26.48;;;20.77;;
79712;SDS011;69206;51.420;5.400;2023-05-07T07:25:09;27.15;;;20.83;;
79712;SDS011;69206;51.420;5.400;2023-05-07T07:27:36;27.98;;;20.00;;
79712;SDS011;69206;51.420;5.400;2023-05-07T07:30:02;31.77;;;20.02;;
79712;SDS011;69206;51.420;5.400;2023-05-07T07:32:27;27.85;;;19.90;;
79712;SDS011;69206;51.420;5.400;2023-05-07T07:34:53;29.95;;;19.58;;
79712;SDS011;69206;51.420;5.400;2023-05-07T07:37:18;26.65;;;20.75;;
79712;SDS011;69206;51.420;5.400;2023-05-07T07:39:44;26.40;;;20.05;;
79712;SDS011;69206;51.420;5.400;2023-05-07T07:42:10;27.92;;;19.08;;
79712;SDS011;69206;51.420;5.400;2023-05-07T07:44:35;28.33;;;19.52;;
79712;SDS011;69206;51.420;5.400;2023-05-07T07:47:00;26.08;;;18.50;;
79712;SDS011;69206;51.420;5.400;2023-05-07T07:49:26;29.60;;;19.58;;
79712;SDS011;69206;51.420;5.400;2023-05-07T07:51:52;27.80;;;17.65;;
79712;SDS011;69206;51.420;5.400;2023-05-07T07:54:17;27.30;;;18.58;;
79712;SDS011;69206;51.420;5.400;2023-05-07T07:56:43;28.83;;;18.00;;
79712;SDS011;69206;51.420;5.400;2023-05-07T07:59:08;22.05;;;17.80;;
79712;SDS011;69206;51.420;5.400;2023-05-07T08:01:34;26.55;;;17.33;;
79712;SDS011;69206;51.420;5.400;2023-05-07T08:03:59;22.35;;;17.60;;
79712;SDS011;69206;51.420;5.400;2023-05-07T08:06:25;28.83;;;18.02;;
79712;SDS011;69206;51.420;5.400;2023-05-07T08:08:53;21.95;;;17.17;;
79712;SDS011;69206;51.420;5.400;2023-05-07T08:11:19;24.60;;;16.38;;
79712;SDS011;69206;51.420;5.400;2023-05-07T08:13:45;21.33;;;15.32;;
79712;SDS011;69206;51.420;5.400;2023-05-07T08:16:10;21.48;;;14.90;;
79712;SDS011;69206;51.420;5.400;2023-05-07T08:18:36;22.52;;;16.10;;
79712;SDS011;69206;51.420;5.400;2023-05-07T08:21:01;18.70;;;13.48;;
79712;SDS011;69206;51.420;5.400;2023-05-07T08:23:27;20.60;;;12.40;;
79712;SDS011;69206;51.420;5.400;2023-05-07T08:25:52;19.40;;;13.13;;
79712;SDS011;69206;51.420;5.400;2023-05-07T08:28:18;16.85;;;12.80;;
79712;SDS011;69206;51.420;5.400;2023-05-07T08:30:44;16.73;;;12.77;;
79712;SDS011;69206;51.420;5.400;2023-05-07T08:33:10;15.68;;;11.73;;
79712;SDS011;69206;51.420;5.400;2023-05-07T08:35:35;19.30;;;12.88;;
79712;SDS011;69206;51.420;5.400;2023-05-07T08:38:01;18.15;;;13.35;;
79712;SDS011;69206;51.420;5.400;2023-05-07T08:40:26;17.40;;;13.00;;
79712;SDS011;69206;51.420;5.400;2023-05-07T08:42:54;20.08;;;12.90;;
79712;SDS011;69206;51.420;5.400;2023-05-07T08:45:21;24.55;;;13.90;;
79712;SDS011;69206;51.420;5.400;2023-05-07T08:47:51;18.50;;;12.88;;
79712;SDS011;69206;51.420;5.400;2023-05-07T08:50:20;21.73;;;14.38;;
79712;SDS011;69206;51.420;5.400;2023-05-07T08:52:46;16.80;;;13.32;;
79712;SDS011;69206;51.420;5.400;2023-05-07T08:55:12;16.73;;;13.25;;
79712;SDS011;69206;51.420;5.400;2023-05-07T08:57:38;24.20;;;13.88;;
79712;SDS011;69206;51.420;5.400;2023-05-07T09:00:04;23.02;;;13.88;;
79712;SDS011;69206;51.420;5.400;2023-05-07T09:02:31;18.55;;;13.68;;
79712;SDS011;69206;51.420;5.400;2023-05-07T09:04:57;16.90;;;12.48;;
79712;SDS011;69206;51.420;5.400;2023-05-07T09:07:22;19.38;;;12.57;;
79712;SDS011;69206;51.420;5.400;2023-05-07T09:09:50;19.13;;;13.38;;
79712;SDS011;69206;51.420;5.400;2023-05-07T09:12:17;17.35;;;12.88;;
79712;SDS011;69206;51.420;5.400;2023-05-07T09:14:43;16.55;;;12.63;;
79712;SDS011;69206;51.420;5.400;2023-05-07T09:17:09;17.95;;;13.30;;
79712;SDS011;69206;51.420;5.400;2023-05-07T09:19:34;18.98;;;13.85;;
79712;SDS011;69206;51.420;5.400;2023-05-07T09:22:03;16.30;;;12.68;;
79712;SDS011;69206;51.420;5.400;2023-05-07T09:24:32;20.15;;;12.80;;
79712;SDS011;69206;51.420;5.400;2023-05-07T09:27:00;17.23;;;12.30;;
79712;SDS011;69206;51.420;5.400;2023-05-07T09:29:27;15.07;;;11.38;;
79712;SDS011;69206;51.420;5.400;2023-05-07T09:31:55;15.95;;;12.60;;
79712;SDS011;69206;51.420;5.400;2023-05-07T09:34:21;16.13;;;11.95;;
79712;SDS011;69206;51.420;5.400;2023-05-07T09:36:47;15.10;;;12.23;;
79712;SDS011;69206;51.420;5.400;2023-05-07T09:39:12;19.58;;;11.77;;
79712;SDS011;69206;51.420;5.400;2023-05-07T09:41:45;16.70;;;12.73;;
79712;SDS011;69206;51.420;5.400;2023-05-07T09:44:11;16.13;;;12.10;;
79712;SDS011;69206;51.420;5.400;2023-05-07T09:46:38;16.60;;;11.93;;
79712;SDS011;69206;51.420;5.400;2023-05-07T09:49:04;17.02;;;12.90;;
79712;SDS011;69206;51.420;5.400;2023-05-07T09:51:39;17.15;;;11.77;;
79712;SDS011;69206;51.420;5.400;2023-05-07T09:54:08;15.40;;;11.90;;
79712;SDS011;69206;51.420;5.400;2023-05-07T09:56:35;14.20;;;10.60;;
79712;SDS011;69206;51.420;5.400;2023-05-07T09:59:02;13.80;;;10.82;;
79712;SDS011;69206;51.420;5.400;2023-05-07T10:01:30;14.65;;;10.68;;
79712;SDS011;69206;51.420;5.400;2023-05-07T10:03:57;16.08;;;10.55;;
79712;SDS011;69206;51.420;5.400;2023-05-07T10:06:23;15.98;;;11.48;;
79712;SDS011;69206;51.420;5.400;2023-05-07T10:08:50;15.23;;;10.23;;
79712;SDS011;69206;51.420;5.400;2023-05-07T10:11:18;17.60;;;12.63;;
79712;SDS011;69206;51.420;5.400;2023-05-07T10:13:44;20.58;;;12.93;;
79712;SDS011;69206;51.420;5.400;2023-05-07T10:16:11;14.93;;;12.68;;
79712;SDS011;69206;51.420;5.400;2023-05-07T10:18:37;14.65;;;10.60;;
79712;SDS011;69206;51.420;5.400;2023-05-07T10:21:07;12.52;;;11.07;;
79712;SDS011;69206;51.420;5.400;2023-05-07T10:23:36;14.00;;;11.75;;
79712;SDS011;69206;51.420;5.400;2023-05-07T10:26:03;13.95;;;11.93;;
79712;SDS011;69206;51.420;5.400;2023-05-07T10:28:32;13.95;;;11.57;;
79712;SDS011;69206;51.420;5.400;2023-05-07T10:31:13;12.70;;;10.07;;
79712;SDS011;69206;51.420;5.400;2023-05-07T10:33:43;12.40;;;9.75;;
79712;SDS011;69206;51.420;5.400;2023-05-07T10:36:11;13.45;;;9.40;;
79712;SDS011;69206;51.420;5.400;2023-05-07T10:38:37;12.75;;;10.43;;
79712;SDS011;69206;51.420;5.400;2023-05-07T10:41:03;16.45;;;10.73;;
79712;SDS011;69206;51.420;5.400;2023-05-07T10:43:43;13.93;;;10.40;;
79712;SDS011;69206;51.420;5.400;2023-05-07T10:46:10;10.88;;;9.32;;
79712;SDS011;69206;51.420;5.400;2023-05-07T10:51:41;13.48;;;10.57;;
79712;SDS011;69206;51.420;5.400;2023-05-07T10:56:35;16.40;;;10.52;;
79712;SDS011;69206;51.420;5.400;2023-05-07T11:02:01;12.20;;;9.30;;
79712;SDS011;69206;51.420;5.400;2023-05-07T11:04:29;12.32;;;8.90;;
79712;SDS011;69206;51.420;5.400;2023-05-07T11:13:03;16.83;;;9.65;;
79712;SDS011;69206;51.420;5.400;2023-05-07T11:15:05;15.85;;;10.38;;
79712;SDS011;69206;51.420;5.400;2023-05-07T11:17:34;14.13;;;10.05;;
79712;SDS011;69206;51.420;5.400;2023-05-07T11:20:00;16.92;;;9.00;;
79712;SDS011;69206;51.420;5.400;2023-05-07T11:24:55;13.60;;;9.20;;
79712;SDS011;69206;51.420;5.400;2023-05-07T11:27:25;12.77;;;9.13;;
79712;SDS011;69206;51.420;5.400;2023-05-07T11:29:51;12.05;;;8.90;;
79712;SDS011;69206;51.420;5.400;2023-05-07T11:32:23;11.70;;;9.20;;
79712;SDS011;69206;51.420;5.400;2023-05-07T11:34:52;13.73;;;9.57;;
79712;SDS011;69206;51.420;5.400;2023-05-07T11:37:22;14.60;;;9.25;;
79712;SDS011;69206;51.420;5.400;2023-05-07T11:39:49;13.52;;;8.77;;
79712;SDS011;69206;51.420;5.400;2023-05-07T11:42:32;12.75;;;9.23;;
79712;SDS011;69206;51.420;5.400;2023-05-07T11:44:59;16.08;;;9.23;;
79712;SDS011;69206;51.420;5.400;2023-05-07T11:47:25;12.65;;;9.15;;
79712;SDS011;69206;51.420;5.400;2023-05-07T11:49:52;12.82;;;8.80;;
79712;SDS011;69206;51.420;5.400;2023-05-07T11:52:19;15.00;;;10.55;;
79712;SDS011;69206;51.420;5.400;2023-05-07T11:54:52;16.83;;;10.98;;
79712;SDS011;69206;51.420;5.400;2023-05-07T11:57:22;18.65;;;11.00;;
79712;SDS011;69206;51.420;5.400;2023-05-07T11:59:52;14.18;;;11.02;;
79712;SDS011;69206;51.420;5.400;2023-05-07T12:02:18;16.75;;;10.95;;
79712;SDS011;69206;51.420;5.400;2023-05-07T12:04:44;15.55;;;11.43;;
79712;SDS011;69206;51.420;5.400;2023-05-07T12:07:16;17.67;;;10.90;;
79712;SDS011;69206;51.420;5.400;2023-05-07T12:09:43;16.83;;;12.20;;
79712;SDS011;69206;51.420;5.400;2023-05-07T12:12:10;15.45;;;10.85;;
79712;SDS011;69206;51.420;5.400;2023-05-07T12:14:43;38.22;;;13.82;;
79712;SDS011;69206;51.420;5.400;2023-05-07T12:17:10;60.85;;;14.70;;
79712;SDS011;69206;51.420;5.400;2023-05-07T12:19:38;59.50;;;15.63;;
79712;SDS011;69206;51.420;5.400;2023-05-07T12:22:05;18.50;;;9.45;;
79712;SDS011;69206;51.420;5.400;2023-05-07T12:24:45;0.70;;;0.70;;
79712;SDS011;69206;51.420;5.400;2023-05-07T12:27:12;0.40;;;0.40;;
79712;SDS011;69206;51.420;5.400;2023-05-07T12:29:46;8.00;;;1.27;;
79712;SDS011;69206;51.420;5.400;2023-05-07T12:32:15;0.20;;;0.17;;
79712;SDS011;69206;51.420;5.400;2023-05-07T12:34:41;0.35;;;0.35;;
79712;SDS011;69206;51.420;5.400;2023-05-07T12:37:07;4.05;;;1.08;;
79712;SDS011;69206;51.420;5.400;2023-05-07T12:39:32;0.35;;;0.35;;
79712;SDS011;69206;51.420;5.400;2023-05-07T12:41:58;1.00;;;0.88;;
79712;SDS011;69206;51.420;5.400;2023-05-07T12:44:25;0.77;;;0.40;;
79712;SDS011;69206;51.420;5.400;2023-05-07T12:46:54;0.25;;;0.25;;
79712;SDS011;69206;51.420;5.400;2023-05-07T12:49:20;0.38;;;0.38;;
79712;SDS011;69206;51.420;5.400;2023-05-07T12:51:49;0.55;;;0.55;;
79712;SDS011;69206;51.420;5.400;2023-05-07T12:59:37;0.65;;;0.65;;
79712;SDS011;69206;51.420;5.400;2023-05-07T13:02:05;0.22;;;0.22;;
79712;SDS011;69206;51.420;5.400;2023-05-07T13:04:30;0.32;;;0.32;;
79712;SDS011;69206;51.420;5.400;2023-05-07T13:06:56;0.30;;;0.30;;
79712;SDS011;69206;51.420;5.400;2023-05-07T13:09:21;0.52;;;0.20;;
79712;SDS011;69206;51.420;5.400;2023-05-07T13:11:47;0.45;;;0.45;;
79712;SDS011;69206;51.420;5.400;2023-05-07T13:14:12;0.10;;;0.10;;
79712;SDS011;69206;51.420;5.400;2023-05-07T13:16:37;0.80;;;0.60;;
79712;SDS011;69206;51.420;5.400;2023-05-07T13:19:03;0.25;;;0.25;;
79712;SDS011;69206;51.420;5.400;2023-05-07T13:21:29;0.13;;;0.13;;
79712;SDS011;69206;51.420;5.400;2023-05-07T13:23:56;0.52;;;0.38;;
79712;SDS011;69206;51.420;5.400;2023-05-07T13:26:22;1.23;;;0.65;;
79712;SDS011;69206;51.420;5.400;2023-05-07T13:28:48;0.10;;;0.10;;
79712;SDS011;69206;51.420;5.400;2023-05-07T13:31:13;4.60;;;1.27;;
79712;SDS011;69206;51.420;5.400;2023-05-07T13:33:39;0.35;;;0.35;;
79712;SDS011;69206;51.420;5.400;2023-05-07T13:36:04;0.20;;;0.20;;
79712;SDS011;69206;51.420;5.400;2023-05-07T13:38:30;0.47;;;0.30;;
79712;SDS011;69206;51.420;5.400;2023-05-07T13:40:56;0.10;;;0.10;;
79712;SDS011;69206;51.420;5.400;2023-05-07T13:43:21;0.10;;;0.10;;
79712;SDS011;69206;51.420;5.400;2023-05-07T13:45:47;0.03;;;0.03;;
79712;SDS011;69206;51.420;5.400;2023-05-07T13:48:12;0.20;;;0.20;;
79712;SDS011;69206;51.420;5.400;2023-05-07T13:50:38;0.45;;;0.45;;
79712;SDS011;69206;51.420;5.400;2023-05-07T13:53:03;0.10;;;0.10;;
79712;SDS011;69206;51.420;5.400;2023-05-07T13:55:29;0.25;;;0.20;;
79712;SDS011;69206;51.420;5.400;2023-05-07T13:57:55;0.25;;;0.22;;
79712;SDS011;69206;51.420;5.400;2023-05-07T14:00:23;5.65;;;0.85;;
79712;SDS011;69206;51.420;5.400;2023-05-07T14:02:48;8.50;;;0.77;;
79712;SDS011;69206;51.420;5.400;2023-05-07T14:05:14;2.60;;;0.35;;
79712;SDS011;69206;51.420;5.400;2023-05-07T14:07:39;0.47;;;0.47;;
79712;SDS011;69206;51.420;5.400;2023-05-07T14:10:05;0.52;;;0.52;;
79712;SDS011;69206;51.420;5.400;2023-05-07T14:12:31;0.22;;;0.22;;
79712;SDS011;69206;51.420;5.400;2023-05-07T14:14:57;0.60;;;0.38;;
79712;SDS011;69206;51.420;5.400;2023-05-07T14:17:23;0.30;;;0.25;;
79712;SDS011;69206;51.420;5.400;2023-05-07T14:19:51;0.55;;;0.55;;
79712;SDS011;69206;51.420;5.400;2023-05-07T14:22:19;0.25;;;0.25;;
79712;SDS011;69206;51.420;5.400;2023-05-07T14:24:45;0.45;;;0.40;;
79712;SDS011;69206;51.420;5.400;2023-05-07T14:27:10;1.77;;;1.05;;
79712;SDS011;69206;51.420;5.400;2023-05-07T14:29:36;0.65;;;0.55;;
79712;SDS011;69206;51.420;5.400;2023-05-07T14:32:02;1.65;;;1.13;;
79712;SDS011;69206;51.420;5.400;2023-05-07T14:34:28;0.73;;;0.73;;
79712;SDS011;69206;51.420;5.400;2023-05-07T14:36:54;0.30;;;0.30;;
79712;SDS011;69206;51.420;5.400;2023-05-07T14:39:20;2.92;;;0.82;;
79712;SDS011;69206;51.420;5.400;2023-05-07T14:41:46;0.70;;;0.70;;